createdAt,value
2023-04-02T00:01:01.443Z,11.77
2023-04-02T00:03:43.908Z,14.57
2023-04-02T00:06:33.120Z,13.40
2023-04-02T00:09:23.963Z,13.07
2023-04-02T00:11:54.928Z,13.50
2023-04-02T00:14:33.599Z,11.63
2023-04-02T00:17:04.416Z,11.38
2023-04-02T00:19:36.555Z,10.52
2023-04-02T00:22:08.103Z,12.43
2023-04-02T00:24:35.281Z,13.18
2023-04-02T00:27:02.296Z,13.48
2023-04-02T00:29:29.231Z,13.43
2023-04-02T00:31:59.401Z,12.93
2023-04-02T00:34:33.280Z,10.50
2023-04-02T00:37:01.909Z,14.07
2023-04-02T00:39:41.572Z,13.10
2023-04-02T00:42:13.091Z,12.43
2023-04-02T00:44:43.250Z,13.00
2023-04-02T00:47:20.474Z,12.73
2023-04-02T00:49:54.697Z,9.23
2023-04-02T00:52:27.181Z,8.00
2023-04-02T00:55:15.055Z,7.72
2023-04-02T00:57:44.963Z,6.82
2023-04-02T01:00:33.356Z,7.95
2023-04-02T01:03:19.291Z,8.50
2023-04-02T01:08:36.325Z,12.45
2023-04-02T01:11:55.923Z,12.05
2023-04-02T01:15:09.820Z,12.20
2023-04-02T01:17:48.866Z,12.70
2023-04-02T01:20:39.105Z,12.45
2023-04-02T01:23:24.067Z,12.75
2023-04-02T01:25:55.779Z,13.85
2023-04-02T01:28:51.533Z,12.90
2023-04-02T01:31:18.871Z,11.90
2023-04-02T01:33:45.976Z,12.15
2023-04-02T01:36:32.123Z,12.82
2023-04-02T01:39:41.230Z,12.35
2023-04-02T01:42:46.063Z,12.32
2023-04-02T01:45:17.103Z,12.30
2023-04-02T01:47:45.036Z,11.40
2023-04-02T01:50:32.120Z,12.43
2023-04-02T01:53:20.876Z,11.57
2023-04-02T01:55:59.470Z,11.57
2023-04-02T01:58:32.015Z,11.35
2023-04-02T02:01:20.294Z,9.88
2023-04-02T02:03:51.215Z,11.05
2023-04-02T02:06:19.749Z,10.10
2023-04-02T02:09:04.368Z,7.65
2023-04-02T02:11:34.025Z,8.57
2023-04-02T02:14:06.797Z,8.15
2023-04-02T02:16:42.000Z,8.20
2023-04-02T02:19:27.201Z,6.93
2023-04-02T02:22:07.899Z,6.88
2023-04-02T02:24:37.137Z,7.20
2023-04-02T02:27:25.126Z,6.40
2023-04-02T02:30:18.087Z,6.30
2023-04-02T02:33:01.825Z,7.00
2023-04-02T02:35:54.840Z,7.88
2023-04-02T02:38:34.904Z,8.35
2023-04-02T02:41:26.278Z,8.68
2023-04-02T02:44:08.627Z,8.45
2023-04-02T02:46:52.708Z,9.50
2023-04-02T02:49:30.268Z,8.50
2023-04-02T02:52:21.524Z,7.50
2023-04-02T02:55:02.188Z,8.13
2023-04-02T02:57:49.157Z,7.38
2023-04-02T03:00:19.659Z,6.93
2023-04-02T03:05:22.754Z,8.07
2023-04-02T03:07:55.539Z,8.68
2023-04-02T03:10:47.393Z,9.70
2023-04-02T03:13:32.792Z,12.25
2023-04-02T03:16:27.125Z,12.73
2023-04-02T03:19:27.091Z,12.05
2023-04-02T03:22:19.117Z,11.95
2023-04-02T03:24:59.510Z,12.20
2023-04-02T03:27:34.795Z,11.38
2023-04-02T03:33:02.623Z,7.28
2023-04-02T03:35:44.366Z,9.30
2023-04-02T03:38:42.167Z,9.55
2023-04-02T03:41:48.476Z,8.50
2023-04-02T03:44:49.563Z,7.97
2023-04-02T03:47:30.782Z,8.20
2023-04-02T03:50:25.677Z,7.63
2023-04-02T03:53:02.184Z,6.88
2023-04-02T03:55:34.894Z,8.15
2023-04-02T03:58:26.937Z,7.63
2023-04-02T04:01:21.174Z,5.82
2023-04-02T04:03:56.151Z,6.68
2023-04-02T04:06:33.755Z,7.18
2023-04-02T04:09:18.341Z,6.13
2023-04-02T04:11:50.839Z,5.75
2023-04-02T04:14:31.589Z,6.65
2023-04-02T04:17:23.767Z,6.82
2023-04-02T04:20:34.771Z,6.20
2023-04-02T04:23:25.795Z,5.38
2023-04-02T04:26:09.708Z,5.10
2023-04-02T04:29:21.889Z,5.97
2023-04-02T04:31:55.291Z,4.65
2023-04-02T04:34:39.068Z,3.97
2023-04-02T04:37:07.937Z,3.50
2023-04-02T04:39:48.341Z,3.13
2023-04-02T04:42:25.687Z,3.05
2023-04-02T04:45:21.137Z,3.85
2023-04-02T04:47:57.932Z,3.53
2023-04-02T04:50:38.587Z,2.50
2023-04-02T04:53:08.545Z,1.83
2023-04-02T04:55:43.452Z,2.22
2023-04-02T04:58:39.421Z,2.63
2023-04-02T05:01:20.935Z,2.17
2023-04-02T05:03:57.349Z,1.45
2023-04-02T05:06:49.805Z,1.77
2023-04-02T05:09:45.433Z,1.80
2023-04-02T05:12:35.952Z,1.55
2023-04-02T05:15:45.829Z,1.63
2023-04-02T05:18:36.074Z,1.73
2023-04-02T05:21:07.491Z,1.52
2023-04-02T05:24:21.516Z,1.40
2023-04-02T05:26:51.264Z,1.35
2023-04-02T05:29:18.175Z,1.30
2023-04-02T05:32:11.058Z,1.63
2023-04-02T05:34:40.980Z,1.35
2023-04-02T05:37:20.116Z,1.77
2023-04-02T05:39:55.689Z,1.25
2023-04-02T05:45:31.432Z,1.70
2023-04-02T05:48:07.480Z,2.10
2023-04-02T05:50:44.516Z,1.10
2023-04-02T05:53:28.585Z,1.73
2023-04-02T05:56:25.539Z,3.00
2023-04-02T05:59:03.207Z,2.07
2023-04-02T06:02:06.588Z,1.85
2023-04-02T06:05:15.934Z,1.52
2023-04-02T06:08:01.673Z,2.07
2023-04-02T06:10:45.890Z,1.80
2023-04-02T06:13:18.831Z,1.70
2023-04-02T06:15:47.871Z,2.08
2023-04-02T06:18:33.145Z,2.22
2023-04-02T06:21:02.127Z,1.80
2023-04-02T06:23:54.106Z,1.80
2023-04-02T06:26:38.358Z,2.55
2023-04-02T06:29:39.883Z,3.08
2023-04-02T06:32:12.533Z,2.60
2023-04-02T06:34:43.298Z,2.63
2023-04-02T06:37:37.013Z,2.35
2023-04-02T06:40:28.197Z,2.30
2023-04-02T06:43:03.014Z,3.25
2023-04-02T06:45:42.252Z,2.85
2023-04-02T06:48:20.279Z,2.25
2023-04-02T06:51:07.806Z,2.58
2023-04-02T06:53:46.574Z,3.28
2023-04-02T06:56:39.479Z,2.95
2023-04-02T06:59:07.910Z,2.38
2023-04-02T07:01:47.245Z,3.65
2023-04-02T07:04:15.576Z,2.65
2023-04-02T07:06:45.818Z,1.70
2023-04-02T07:09:14.704Z,2.72
2023-04-02T07:11:46.477Z,2.28
2023-04-02T07:14:14.897Z,2.65
2023-04-02T07:16:43.655Z,2.00
2023-04-02T07:19:20.246Z,2.13
2023-04-02T07:21:49.345Z,2.15
2023-04-02T07:24:17.277Z,2.00
2023-04-02T07:26:44.376Z,1.90
2023-04-02T07:29:16.277Z,2.65
2023-04-02T07:31:44.052Z,2.10
2023-04-02T07:34:11.693Z,2.03
2023-04-02T07:36:38.982Z,1.90
2023-04-02T07:39:06.388Z,1.98
2023-04-02T07:41:33.455Z,2.58
2023-04-02T07:44:00.742Z,2.45
2023-04-02T07:46:27.844Z,2.22
2023-04-02T07:48:54.859Z,3.13
2023-04-02T07:51:26.653Z,2.20
2023-04-02T07:53:56.734Z,2.75
2023-04-02T07:56:25.187Z,2.72
2023-04-02T07:58:52.415Z,2.50
2023-04-02T08:01:24.376Z,2.42
2023-04-02T08:03:54.396Z,3.08
2023-04-02T08:06:23.581Z,2.35
2023-04-02T08:08:51.580Z,3.00
2023-04-02T08:11:18.648Z,2.90
2023-04-02T08:13:46.035Z,2.70
2023-04-02T08:16:13.505Z,3.00
2023-04-02T08:18:40.617Z,2.65
2023-04-02T08:21:12.690Z,2.70
2023-04-02T08:23:41.024Z,2.42
2023-04-02T08:26:09.040Z,1.80
2023-04-02T08:28:36.317Z,1.45
2023-04-02T08:31:05.045Z,1.92
2023-04-02T08:33:32.562Z,1.65
2023-04-02T08:35:59.896Z,1.50
2023-04-02T08:38:26.967Z,1.92
2023-04-02T08:40:59.936Z,2.60
2023-04-02T08:44:07.133Z,2.30
2023-04-02T08:46:39.267Z,2.00
2023-04-02T08:49:20.337Z,1.85
2023-04-02T08:51:47.897Z,2.25
2023-04-02T08:54:43.770Z,1.35
2023-04-02T08:57:45.375Z,2.38
2023-04-02T09:00:15.917Z,1.50
2023-04-02T09:02:52.811Z,1.60
2023-04-02T09:05:29.959Z,1.27
2023-04-02T09:08:02.773Z,1.75
2023-04-02T09:10:41.670Z,1.48
2023-04-02T09:13:23.409Z,1.25
2023-04-02T09:15:56.842Z,1.35
2023-04-02T09:18:23.991Z,1.30
2023-04-02T09:20:51.431Z,1.50
2023-04-02T09:23:26.176Z,1.00
2023-04-02T09:26:03.995Z,1.33
2023-04-02T09:28:32.166Z,1.00
2023-04-02T09:31:27.100Z,1.17
2023-04-02T09:33:54.865Z,1.38
2023-04-02T09:36:35.096Z,1.67
2023-04-02T09:39:07.039Z,2.85
2023-04-02T09:41:37.089Z,1.40
2023-04-02T09:44:24.215Z,1.55
2023-04-02T09:46:59.603Z,1.10
2023-04-02T09:49:31.173Z,1.35
2023-04-02T09:52:20.064Z,1.40
2023-04-02T09:55:12.037Z,1.52
2023-04-02T09:57:39.081Z,1.42
2023-04-02T10:00:32.043Z,1.65
2023-04-02T10:03:27.495Z,1.58
2023-04-02T10:06:17.555Z,2.60
2023-04-02T10:08:45.872Z,1.80
2023-04-02T10:11:43.654Z,2.00
2023-04-02T10:14:29.248Z,1.55
2023-04-02T10:17:02.840Z,1.52
2023-04-02T10:19:41.591Z,1.85
2023-04-02T10:22:16.870Z,2.00
2023-04-02T10:24:44.320Z,2.70
2023-04-02T10:27:26.824Z,2.17
2023-04-02T10:30:11.524Z,1.90
2023-04-02T10:32:58.672Z,2.50
2023-04-02T10:35:37.613Z,1.20
2023-04-02T10:38:31.575Z,1.50
2023-04-02T10:41:44.816Z,2.05
2023-04-02T10:44:24.027Z,1.13
2023-04-02T10:47:41.281Z,2.45
2023-04-02T10:50:47.491Z,1.17
2023-04-02T10:53:21.235Z,1.77
2023-04-02T10:56:03.670Z,1.10
2023-04-02T10:58:34.397Z,1.17
2023-04-02T11:01:26.020Z,1.02
2023-04-02T11:03:57.983Z,1.30
2023-04-02T11:06:33.280Z,1.33
2023-04-02T11:09:07.714Z,1.92
2023-04-02T11:11:44.830Z,1.13
2023-04-02T11:14:36.577Z,1.20
2023-04-02T11:17:03.659Z,1.17
2023-04-02T11:19:32.970Z,0.90
2023-04-02T11:22:06.781Z,1.20
2023-04-02T11:24:44.782Z,1.30
2023-04-02T11:27:11.722Z,1.17
2023-04-02T11:29:43.621Z,1.40
2023-04-02T11:32:27.796Z,1.00
2023-04-02T11:35:05.935Z,1.58
2023-04-02T11:37:45.779Z,1.60
2023-04-02T11:40:13.985Z,1.15
2023-04-02T11:42:50.344Z,1.80
2023-04-02T11:45:23.250Z,2.25
2023-04-02T11:48:03.852Z,1.10
2023-04-02T11:50:38.036Z,1.27
2023-04-02T11:53:13.219Z,2.55
2023-04-02T11:55:42.916Z,1.20
2023-04-02T11:58:50.387Z,1.25
2023-04-02T12:02:01.191Z,1.13
2023-04-02T12:04:56.419Z,1.95
2023-04-02T12:08:05.845Z,1.40
2023-04-02T12:10:52.241Z,1.63
2023-04-02T12:13:42.170Z,1.58
2023-04-02T12:16:11.956Z,1.35
2023-04-02T12:18:55.890Z,1.42
2023-04-02T12:21:29.209Z,1.30
2023-04-02T12:23:59.459Z,1.63
2023-04-02T12:26:37.823Z,0.82
2023-04-02T12:29:27.314Z,1.10
2023-04-02T12:31:57.553Z,1.00
2023-04-02T12:34:28.776Z,1.23
2023-04-02T12:37:04.891Z,1.13
2023-04-02T12:39:34.071Z,1.33
2023-04-02T12:42:01.609Z,1.05
2023-04-02T12:44:31.157Z,1.60
2023-04-02T12:46:59.398Z,1.05
2023-04-02T12:49:38.960Z,0.90
2023-04-02T12:52:20.651Z,0.82
2023-04-02T12:55:00.460Z,1.08
2023-04-02T12:57:30.372Z,1.17
2023-04-02T13:00:01.023Z,1.25
2023-04-02T13:02:32.734Z,0.75
2023-04-02T13:05:01.738Z,1.00
2023-04-02T13:07:32.604Z,1.00
2023-04-02T13:10:24.316Z,1.38
2023-04-02T13:12:57.711Z,0.90
2023-04-02T13:15:31.554Z,1.00
2023-04-02T13:18:22.864Z,0.90
2023-04-02T13:20:59.050Z,1.13
2023-04-02T13:23:32.437Z,1.08
2023-04-02T13:26:19.191Z,1.10
2023-04-02T13:29:18.984Z,0.80
2023-04-02T13:31:45.932Z,1.58
2023-04-02T13:34:12.962Z,1.00
2023-04-02T13:36:40.269Z,0.70
2023-04-02T13:39:07.336Z,1.02
2023-04-02T13:41:41.940Z,1.20
2023-04-02T13:44:27.892Z,1.02
2023-04-02T13:46:56.436Z,1.58
2023-04-02T13:49:24.736Z,1.38
2023-04-02T13:51:58.869Z,0.85
2023-04-02T13:54:43.528Z,2.47
2023-04-02T13:57:10.767Z,0.88
2023-04-02T13:59:38.019Z,0.60
2023-04-02T14:02:10.677Z,0.70
2023-04-02T14:04:51.035Z,0.75
2023-04-02T14:07:51.744Z,1.00
2023-04-02T14:10:54.330Z,0.90
2023-04-02T14:13:48.171Z,1.00
2023-04-02T14:16:57.862Z,0.55
2023-04-02T14:20:30.376Z,0.90
2023-04-02T14:23:16.213Z,1.00
2023-04-02T14:26:39.752Z,1.17
2023-04-02T14:29:31.512Z,1.60
2023-04-02T14:32:42.854Z,1.52
2023-04-02T14:35:34.169Z,0.90
2023-04-02T14:38:20.639Z,1.40
2023-04-02T14:41:00.238Z,1.15
2023-04-02T14:43:38.698Z,1.10
2023-04-02T14:46:08.310Z,0.95
2023-04-02T14:49:03.936Z,0.90
2023-04-02T14:51:36.684Z,1.00
2023-04-02T14:54:34.912Z,0.95
2023-04-02T14:57:21.631Z,1.45
2023-04-02T15:00:03.954Z,0.80
2023-04-02T15:02:46.414Z,0.90
2023-04-02T15:05:20.384Z,1.00
2023-04-02T15:08:06.892Z,0.93
2023-04-02T15:10:51.879Z,1.35
2023-04-02T15:13:25.931Z,0.70
2023-04-02T15:15:59.291Z,1.00
2023-04-02T15:18:26.913Z,0.93
2023-04-02T15:21:23.236Z,0.65
2023-04-02T15:24:21.703Z,1.23
2023-04-02T15:27:02.051Z,1.25
2023-04-02T15:30:12.998Z,0.77
2023-04-02T15:32:41.774Z,0.93
2023-04-02T15:35:41.722Z,0.82
2023-04-02T15:38:26.602Z,0.85
2023-04-02T15:41:02.912Z,0.80
2023-04-02T15:43:53.650Z,0.57
2023-04-02T15:47:06.469Z,0.98
2023-04-02T15:49:47.166Z,0.70
2023-04-02T15:52:36.436Z,0.90
2023-04-02T15:55:38.942Z,0.88
2023-04-02T15:58:32.492Z,0.82
2023-04-02T16:01:20.808Z,1.00
2023-04-02T16:04:24.999Z,1.13
2023-04-02T16:07:20.581Z,0.65
2023-04-02T16:10:09.691Z,0.70
2023-04-02T16:12:38.403Z,1.33
2023-04-02T16:15:24.727Z,1.38
2023-04-02T16:18:06.310Z,0.90
2023-04-02T16:20:44.069Z,1.00
2023-04-02T16:23:40.547Z,0.93
2023-04-02T16:26:34.630Z,1.02
2023-04-02T16:29:29.887Z,1.08
2023-04-02T16:32:14.054Z,0.93
2023-04-02T16:34:52.884Z,0.63
2023-04-02T16:37:43.075Z,0.70
2023-04-02T16:40:42.107Z,0.80
2023-04-02T16:43:26.902Z,0.60
2023-04-02T16:46:15.758Z,0.60
2023-04-02T16:48:49.196Z,0.95
2023-04-02T16:51:40.756Z,0.90
2023-04-02T16:54:39.480Z,0.98
2023-04-02T16:57:24.168Z,0.80
2023-04-02T16:59:54.991Z,0.88
2023-04-02T17:03:22.633Z,1.00
2023-04-02T17:06:37.877Z,1.10
2023-04-02T17:09:15.632Z,0.95
2023-04-02T17:12:23.603Z,1.17
2023-04-02T17:15:04.611Z,1.75
2023-04-02T17:17:32.799Z,2.25
2023-04-02T17:20:01.613Z,0.95
2023-04-02T17:22:31.681Z,0.90
2023-04-02T17:25:03.449Z,1.13
2023-04-02T17:27:41.186Z,0.63
2023-04-02T17:30:32.881Z,0.88
2023-04-02T17:32:59.881Z,0.85
2023-04-02T17:35:38.628Z,0.82
2023-04-02T17:38:16.869Z,0.90
2023-04-02T17:41:02.240Z,1.33
2023-04-02T17:43:37.362Z,0.87
2023-04-02T17:46:34.669Z,0.88
2023-04-02T17:49:39.907Z,1.00
2023-04-02T17:52:42.181Z,1.15
2023-04-02T17:55:47.244Z,1.00
2023-04-02T17:58:38.337Z,0.65
2023-04-02T18:01:57.129Z,0.88
2023-04-02T18:04:52.117Z,0.80
2023-04-02T18:07:35.661Z,0.90
2023-04-02T18:10:27.238Z,0.90
2023-04-02T18:13:35.799Z,1.10
2023-04-02T18:16:13.878Z,1.27
2023-04-02T18:18:49.328Z,1.00
2023-04-02T18:22:00.863Z,1.17
2023-04-02T18:24:52.283Z,1.00
2023-04-02T18:27:52.446Z,1.13
2023-04-02T18:30:22.261Z,1.13
2023-04-02T18:33:13.474Z,1.23
2023-04-02T18:35:59.987Z,1.52
2023-04-02T18:38:44.623Z,1.45
2023-04-02T18:41:29.068Z,0.98
2023-04-02T18:44:11.935Z,0.82
2023-04-02T18:46:51.332Z,0.90
2023-04-02T18:49:32.461Z,1.58
2023-04-02T18:52:04.220Z,0.70
2023-04-02T18:54:50.619Z,2.10
2023-04-02T18:57:34.136Z,1.30
2023-04-02T19:00:21.126Z,1.17
2023-04-02T19:03:02.091Z,0.90
2023-04-02T19:05:35.614Z,1.50
2023-04-02T19:08:19.178Z,1.48
2023-04-02T19:10:52.760Z,1.58
2023-04-02T19:13:20.869Z,1.48
2023-04-02T19:16:24.173Z,1.45
2023-04-02T19:19:10.460Z,0.90
2023-04-02T19:24:41.481Z,1.47
2023-04-02T19:27:39.342Z,0.98
2023-04-02T19:30:53.375Z,1.00
2023-04-02T19:33:45.585Z,0.85
2023-04-02T19:36:42.993Z,1.05
2023-04-02T19:39:40.355Z,1.00
2023-04-02T19:42:22.121Z,0.82
2023-04-02T19:44:52.208Z,0.85
2023-04-02T19:47:20.543Z,0.93
2023-04-02T19:49:47.818Z,2.05
2023-04-02T19:52:14.905Z,1.10
2023-04-02T19:54:42.200Z,0.90
2023-04-02T19:57:14.596Z,0.60
2023-04-02T19:59:41.962Z,1.00
2023-04-02T20:02:11.207Z,1.05
2023-04-02T20:04:38.389Z,0.88
2023-04-02T20:07:05.830Z,0.70
2023-04-02T20:09:32.868Z,0.95
2023-04-02T20:11:59.889Z,1.10
2023-04-02T20:14:27.237Z,0.90
2023-04-02T20:16:54.317Z,1.00
2023-04-02T20:19:21.466Z,0.85
2023-04-02T20:21:48.478Z,0.98
2023-04-02T20:24:15.799Z,0.50
2023-04-02T20:26:43.026Z,0.90
2023-04-02T20:29:10.100Z,0.82
2023-04-02T20:31:37.212Z,1.60
2023-04-02T20:34:05.821Z,0.70
2023-04-02T20:36:33.022Z,1.27
2023-04-02T20:39:00.179Z,1.00
2023-04-02T20:41:27.578Z,0.90
2023-04-02T20:43:54.752Z,1.30
2023-04-02T20:46:22.872Z,1.20
2023-04-02T20:48:50.183Z,1.35
2023-04-02T20:51:17.394Z,1.15
2023-04-02T20:53:44.604Z,0.90
2023-04-02T20:56:15.659Z,1.10
2023-04-02T20:58:43.723Z,1.25
2023-04-02T21:01:25.363Z,1.20
2023-04-02T21:04:01.255Z,0.75
2023-04-02T21:06:37.448Z,0.75
2023-04-02T21:09:08.591Z,0.90
2023-04-02T21:11:36.860Z,1.45
2023-04-02T21:14:04.383Z,0.90
2023-04-02T21:16:32.324Z,1.98
2023-04-02T21:19:09.054Z,1.17
2023-04-02T21:21:38.911Z,1.00
2023-04-02T21:24:08.643Z,1.10
2023-04-02T21:26:41.290Z,0.80
2023-04-02T21:29:08.757Z,0.80
2023-04-02T21:31:40.180Z,1.13
2023-04-02T21:34:09.946Z,0.93
2023-04-02T21:36:41.224Z,1.00
2023-04-02T21:39:12.731Z,1.13
2023-04-02T21:41:43.698Z,1.10
2023-04-02T21:44:14.687Z,0.90
2023-04-02T21:46:43.223Z,1.75
2023-04-02T21:49:17.347Z,0.90
2023-04-02T21:51:46.578Z,1.08
2023-04-02T21:54:14.154Z,0.80
2023-04-02T21:56:44.253Z,0.93
2023-04-02T21:59:13.766Z,0.70
2023-04-02T22:01:48.939Z,0.70
2023-04-02T22:04:25.759Z,1.60
2023-04-02T22:06:53.532Z,0.65
2023-04-02T22:09:24.119Z,0.80
2023-04-02T22:11:55.259Z,0.82
2023-04-02T22:14:22.677Z,0.70
2023-04-02T22:16:49.868Z,1.15
2023-04-02T22:19:17.598Z,0.82
2023-04-02T22:21:45.987Z,1.25
2023-04-02T22:24:16.118Z,0.77
2023-04-02T22:26:44.499Z,0.90
2023-04-02T22:29:12.146Z,1.10
2023-04-02T22:31:39.460Z,0.85
2023-04-02T22:34:07.324Z,1.25
2023-04-02T22:36:34.844Z,0.80
2023-04-02T22:39:05.553Z,0.60
2023-04-02T22:41:33.049Z,0.70
2023-04-02T22:44:01.753Z,0.85
2023-04-02T22:46:30.169Z,0.90
2023-04-02T22:48:58.305Z,0.98
2023-04-02T22:51:27.670Z,0.68
2023-04-02T22:53:56.786Z,0.90
2023-04-02T22:56:32.132Z,0.80
2023-04-02T22:58:59.836Z,0.77
2023-04-02T23:01:32.361Z,0.80
2023-04-02T23:03:59.838Z,0.80
2023-04-02T23:06:27.408Z,0.68
2023-04-02T23:08:54.644Z,1.08
2023-04-02T23:11:25.970Z,0.90
2023-04-02T23:13:56.692Z,0.80
2023-04-02T23:16:26.969Z,0.90
2023-04-02T23:18:56.204Z,1.38
2023-04-02T23:21:24.036Z,1.05
2023-04-02T23:23:51.546Z,1.05
2023-04-02T23:26:30.641Z,1.05
2023-04-02T23:28:59.732Z,1.20
2023-04-02T23:31:27.742Z,1.52
2023-04-02T23:33:55.012Z,0.80
2023-04-02T23:36:27.542Z,0.77
2023-04-02T23:38:56.988Z,0.95
2023-04-02T23:41:26.982Z,1.50
2023-04-02T23:43:56.054Z,0.75
2023-04-02T23:46:24.336Z,2.10
2023-04-02T23:48:52.283Z,0.90
2023-04-02T23:51:19.883Z,0.95
2023-04-02T23:53:47.991Z,0.93
2023-04-02T23:56:15.485Z,0.93
2023-04-02T23:58:42.452Z,1.05
